sensor_id;sensor_type;location;lat;lon;timestamp;temperature;humidity
78315;SHT31;68596;52.080;4.662;2024-03-22T00:01:24;13.00;76.22
78315;SHT31;68596;52.080;4.662;2024-03-22T00:04:08;13.00;76.25
78315;SHT31;68596;52.080;4.662;2024-03-22T00:06:52;12.97;76.31
78315;SHT31;68596;52.080;4.662;2024-03-22T00:09:37;12.97;76.39
78315;SHT31;68596;52.080;4.662;2024-03-22T00:12:21;12.98;76.15
78315;SHT31;68596;52.080;4.662;2024-03-22T00:15:07;12.97;76.26
78315;SHT31;68596;52.080;4.662;2024-03-22T00:17:51;12.92;76.40
78315;SHT31;68596;52.080;4.662;2024-03-22T00:20:35;12.80;76.54
78315;SHT31;68596;52.080;4.662;2024-03-22T00:23:19;12.77;76.71
78315;SHT31;68596;52.080;4.662;2024-03-22T00:26:03;12.80;76.67
78315;SHT31;68596;52.080;4.662;2024-03-22T00:28:47;12.80;76.60
78315;SHT31;68596;52.080;4.662;2024-03-22T00:31:32;12.73;76.68
78315;SHT31;68596;52.080;4.662;2024-03-22T00:34:17;12.63;76.82
78315;SHT31;68596;52.080;4.662;2024-03-22T00:37:01;12.65;76.94
78315;SHT31;68596;52.080;4.662;2024-03-22T00:39:45;12.71;76.84
78315;SHT31;68596;52.080;4.662;2024-03-22T00:42:29;12.73;76.63
78315;SHT31;68596;52.080;4.662;2024-03-22T00:45:14;12.73;76.31
78315;SHT31;68596;52.080;4.662;2024-03-22T00:47:58;12.67;76.53
78315;SHT31;68596;52.080;4.662;2024-03-22T00:50:42;12.67;76.50
78315;SHT31;68596;52.080;4.662;2024-03-22T00:53:26;12.68;76.49
78315;SHT31;68596;52.080;4.662;2024-03-22T00:56:10;12.64;76.73
78315;SHT31;68596;52.080;4.662;2024-03-22T00:58:54;12.59;76.85
78315;SHT31;68596;52.080;4.662;2024-03-22T01:01:38;12.53;76.62
78315;SHT31;68596;52.080;4.662;2024-03-22T01:04:23;12.50;76.74
78315;SHT31;68596;52.080;4.662;2024-03-22T01:07:07;12.47;76.67
78315;SHT31;68596;52.080;4.662;2024-03-22T01:09:51;12.41;76.88
78315;SHT31;68596;52.080;4.662;2024-03-22T01:12:37;12.37;76.82
78315;SHT31;68596;52.080;4.662;2024-03-22T01:15:22;12.46;76.67
78315;SHT31;68596;52.080;4.662;2024-03-22T01:18:07;12.50;76.71
78315;SHT31;68596;52.080;4.662;2024-03-22T01:20:51;12.47;76.61
78315;SHT31;68596;52.080;4.662;2024-03-22T01:23:35;12.47;76.79
78315;SHT31;68596;52.080;4.662;2024-03-22T01:26:19;12.51;76.49
78315;SHT31;68596;52.080;4.662;2024-03-22T01:29:03;12.53;76.45
78315;SHT31;68596;52.080;4.662;2024-03-22T01:31:48;12.51;76.67
78315;SHT31;68596;52.080;4.662;2024-03-22T01:34:32;12.47;76.72
78315;SHT31;68596;52.080;4.662;2024-03-22T01:37:16;12.50;76.73
78315;SHT31;68596;52.080;4.662;2024-03-22T01:40:00;12.39;76.91
78315;SHT31;68596;52.080;4.662;2024-03-22T01:42:44;12.34;77.15
78315;SHT31;68596;52.080;4.662;2024-03-22T01:45:32;12.30;77.15
78315;SHT31;68596;52.080;4.662;2024-03-22T01:48:16;12.34;77.10
78315;SHT31;68596;52.080;4.662;2024-03-22T01:51:04;12.32;77.05
78315;SHT31;68596;52.080;4.662;2024-03-22T01:53:49;12.28;77.11
78315;SHT31;68596;52.080;4.662;2024-03-22T01:56:38;12.29;77.02
78315;SHT31;68596;52.080;4.662;2024-03-22T01:59:23;12.36;76.61
78315;SHT31;68596;52.080;4.662;2024-03-22T02:02:07;12.26;76.93
78315;SHT31;68596;52.080;4.662;2024-03-22T02:04:51;12.26;77.04
78315;SHT31;68596;52.080;4.662;2024-03-22T02:07:35;12.33;76.87
78315;SHT31;68596;52.080;4.662;2024-03-22T02:10:20;12.32;76.89
78315;SHT31;68596;52.080;4.662;2024-03-22T02:13:04;12.32;76.87
78315;SHT31;68596;52.080;4.662;2024-03-22T02:15:48;12.33;76.91
78315;SHT31;68596;52.080;4.662;2024-03-22T02:18:32;12.32;76.89
78315;SHT31;68596;52.080;4.662;2024-03-22T02:21:16;12.28;77.11
78315;SHT31;68596;52.080;4.662;2024-03-22T02:24:00;12.29;77.11
78315;SHT31;68596;52.080;4.662;2024-03-22T02:26:44;12.29;77.05
78315;SHT31;68596;52.080;4.662;2024-03-22T02:29:28;12.32;76.97
78315;SHT31;68596;52.080;4.662;2024-03-22T02:32:13;12.30;76.97
78315;SHT31;68596;52.080;4.662;2024-03-22T02:34:56;12.26;77.07
78315;SHT31;68596;52.080;4.662;2024-03-22T02:37:41;12.29;77.20
78315;SHT31;68596;52.080;4.662;2024-03-22T02:40:25;12.29;77.11
78315;SHT31;68596;52.080;4.662;2024-03-22T02:43:09;12.25;76.96
78315;SHT31;68596;52.080;4.662;2024-03-22T02:45:53;12.25;77.09
78315;SHT31;68596;52.080;4.662;2024-03-22T02:48:37;12.26;76.91
78315;SHT31;68596;52.080;4.662;2024-03-22T02:51:21;12.29;76.79
78315;SHT31;68596;52.080;4.662;2024-03-22T02:54:05;12.22;77.06
78315;SHT31;68596;52.080;4.662;2024-03-22T02:56:50;12.20;77.11
78315;SHT31;68596;52.080;4.662;2024-03-22T02:59:34;12.16;77.15
78315;SHT31;68596;52.080;4.662;2024-03-22T03:02:18;12.13;77.22
78315;SHT31;68596;52.080;4.662;2024-03-22T03:05:02;12.08;77.35
78315;SHT31;68596;52.080;4.662;2024-03-22T03:07:47;12.08;77.41
78315;SHT31;68596;52.080;4.662;2024-03-22T03:10:32;12.03;77.56
78315;SHT31;68596;52.080;4.662;2024-03-22T03:13:16;12.06;77.37
78315;SHT31;68596;52.080;4.662;2024-03-22T03:16:00;11.96;77.34
78315;SHT31;68596;52.080;4.662;2024-03-22T03:18:44;11.98;77.24
78315;SHT31;68596;52.080;4.662;2024-03-22T03:21:28;12.00;77.21
78315;SHT31;68596;52.080;4.662;2024-03-22T03:24:13;11.98;77.27
78315;SHT31;68596;52.080;4.662;2024-03-22T03:26:57;11.96;77.28
78315;SHT31;68596;52.080;4.662;2024-03-22T03:29:41;11.95;77.30
78315;SHT31;68596;52.080;4.662;2024-03-22T03:32:26;11.95;77.40
78315;SHT31;68596;52.080;4.662;2024-03-22T03:35:10;11.95;77.35
78315;SHT31;68596;52.080;4.662;2024-03-22T03:37:55;11.99;77.19
78315;SHT31;68596;52.080;4.662;2024-03-22T03:40:39;11.93;77.13
78315;SHT31;68596;52.080;4.662;2024-03-22T03:43:23;11.98;77.05
78315;SHT31;68596;52.080;4.662;2024-03-22T03:46:08;11.92;77.20
78315;SHT31;68596;52.080;4.662;2024-03-22T03:48:52;11.90;77.32
78315;SHT31;68596;52.080;4.662;2024-03-22T03:51:36;11.95;77.12
78315;SHT31;68596;52.080;4.662;2024-03-22T03:54:20;11.93;76.96
78315;SHT31;68596;52.080;4.662;2024-03-22T03:57:05;11.92;77.04
78315;SHT31;68596;52.080;4.662;2024-03-22T03:59:49;11.96;77.07
78315;SHT31;68596;52.080;4.662;2024-03-22T04:02:34;11.93;77.11
78315;SHT31;68596;52.080;4.662;2024-03-22T04:05:18;12.00;76.85
78315;SHT31;68596;52.080;4.662;2024-03-22T04:08:03;12.02;76.96
78315;SHT31;68596;52.080;4.662;2024-03-22T04:10:55;11.99;77.03
78315;SHT31;68596;52.080;4.662;2024-03-22T04:13:42;12.08;76.73
78315;SHT31;68596;52.080;4.662;2024-03-22T04:16:26;12.13;76.66
78315;SHT31;68596;52.080;4.662;2024-03-22T04:19:11;12.18;76.51
78315;SHT31;68596;52.080;4.662;2024-03-22T04:21:55;12.16;76.29
78315;SHT31;68596;52.080;4.662;2024-03-22T04:24:39;12.13;76.28
78315;SHT31;68596;52.080;4.662;2024-03-22T04:27:23;12.05;76.73
78315;SHT31;68596;52.080;4.662;2024-03-22T04:30:09;12.05;76.93
78315;SHT31;68596;52.080;4.662;2024-03-22T04:32:54;11.99;76.92
78315;SHT31;68596;52.080;4.662;2024-03-22T04:35:45;12.03;76.91
78315;SHT31;68596;52.080;4.662;2024-03-22T04:38:30;12.02;76.91
78315;SHT31;68596;52.080;4.662;2024-03-22T04:41:14;12.05;76.85
78315;SHT31;68596;52.080;4.662;2024-03-22T04:43:58;12.10;76.74
78315;SHT31;68596;52.080;4.662;2024-03-22T04:46:42;12.09;76.86
78315;SHT31;68596;52.080;4.662;2024-03-22T04:49:26;12.05;76.57
78315;SHT31;68596;52.080;4.662;2024-03-22T04:52:10;12.09;76.81
78315;SHT31;68596;52.080;4.662;2024-03-22T04:54:55;12.03;76.99
78315;SHT31;68596;52.080;4.662;2024-03-22T04:57:39;12.03;76.95
78315;SHT31;68596;52.080;4.662;2024-03-22T05:00:23;12.05;76.83
78315;SHT31;68596;52.080;4.662;2024-03-22T05:03:09;12.03;76.83
78315;SHT31;68596;52.080;4.662;2024-03-22T05:05:53;12.03;76.80
78315;SHT31;68596;52.080;4.662;2024-03-22T05:08:41;12.05;76.68
78315;SHT31;68596;52.080;4.662;2024-03-22T05:11:26;11.98;76.68
78315;SHT31;68596;52.080;4.662;2024-03-22T05:14:10;11.96;76.71
78315;SHT31;68596;52.080;4.662;2024-03-22T05:16:54;11.99;76.66
78315;SHT31;68596;52.080;4.662;2024-03-22T05:19:38;11.93;76.75
78315;SHT31;68596;52.080;4.662;2024-03-22T05:22:22;11.96;76.67
78315;SHT31;68596;52.080;4.662;2024-03-22T05:25:07;12.00;76.65
78315;SHT31;68596;52.080;4.662;2024-03-22T05:27:51;11.96;76.59
78315;SHT31;68596;52.080;4.662;2024-03-22T05:30:36;11.99;76.45
78315;SHT31;68596;52.080;4.662;2024-03-22T05:33:20;12.02;76.39
78315;SHT31;68596;52.080;4.662;2024-03-22T05:36:04;12.00;76.35
78315;SHT31;68596;52.080;4.662;2024-03-22T05:38:48;11.95;76.33
78315;SHT31;68596;52.080;4.662;2024-03-22T05:41:32;12.00;76.23
78315;SHT31;68596;52.080;4.662;2024-03-22T05:44:17;11.99;76.09
78315;SHT31;68596;52.080;4.662;2024-03-22T05:47:01;12.06;76.11
78315;SHT31;68596;52.080;4.662;2024-03-22T05:49:46;12.15;75.67
78315;SHT31;68596;52.080;4.662;2024-03-22T05:52:30;12.16;75.44
78315;SHT31;68596;52.080;4.662;2024-03-22T05:55:14;12.15;75.48
78315;SHT31;68596;52.080;4.662;2024-03-22T05:57:58;12.13;75.48
78315;SHT31;68596;52.080;4.662;2024-03-22T06:00:42;12.16;75.25
78315;SHT31;68596;52.080;4.662;2024-03-22T06:03:26;12.10;75.51
78315;SHT31;68596;52.080;4.662;2024-03-22T06:06:10;12.06;75.70
78315;SHT31;68596;52.080;4.662;2024-03-22T06:08:56;12.03;76.01
78315;SHT31;68596;52.080;4.662;2024-03-22T06:11:44;12.02;76.01
78315;SHT31;68596;52.080;4.662;2024-03-22T06:14:28;11.96;75.97
78315;SHT31;68596;52.080;4.662;2024-03-22T06:17:12;11.92;76.32
78315;SHT31;68596;52.080;4.662;2024-03-22T06:19:56;11.93;76.28
78315;SHT31;68596;52.080;4.662;2024-03-22T06:22:40;11.95;76.29
78315;SHT31;68596;52.080;4.662;2024-03-22T06:25:24;11.99;76.04
78315;SHT31;68596;52.080;4.662;2024-03-22T06:28:08;12.08;75.92
78315;SHT31;68596;52.080;4.662;2024-03-22T06:30:52;12.16;75.67
78315;SHT31;68596;52.080;4.662;2024-03-22T06:33:36;12.15;75.34
78315;SHT31;68596;52.080;4.662;2024-03-22T06:36:20;12.22;75.26
78315;SHT31;68596;52.080;4.662;2024-03-22T06:39:06;12.25;75.37
78315;SHT31;68596;52.080;4.662;2024-03-22T06:41:52;12.29;74.99
78315;SHT31;68596;52.080;4.662;2024-03-22T06:44:36;12.30;74.59
78315;SHT31;68596;52.080;4.662;2024-03-22T06:47:20;12.25;74.87
78315;SHT31;68596;52.080;4.662;2024-03-22T06:50:06;12.23;75.15
78315;SHT31;68596;52.080;4.662;2024-03-22T06:52:51;12.19;75.22
78315;SHT31;68596;52.080;4.662;2024-03-22T06:55:38;12.25;75.25
78315;SHT31;68596;52.080;4.662;2024-03-22T06:58:22;12.30;75.12
78315;SHT31;68596;52.080;4.662;2024-03-22T07:01:07;12.26;74.96
78315;SHT31;68596;52.080;4.662;2024-03-22T07:03:51;12.32;75.15
78315;SHT31;68596;52.080;4.662;2024-03-22T07:06:37;12.36;75.08
78315;SHT31;68596;52.080;4.662;2024-03-22T07:09:21;12.34;74.77
78315;SHT31;68596;52.080;4.662;2024-03-22T07:12:06;12.28;75.06
78315;SHT31;68596;52.080;4.662;2024-03-22T07:14:50;12.34;75.31
78315;SHT31;68596;52.080;4.662;2024-03-22T07:17:35;12.33;75.28
78315;SHT31;68596;52.080;4.662;2024-03-22T07:20:19;12.33;75.25
78315;SHT31;68596;52.080;4.662;2024-03-22T07:23:03;12.41;75.16
78315;SHT31;68596;52.080;4.662;2024-03-22T07:25:48;12.49;75.18
78315;SHT31;68596;52.080;4.662;2024-03-22T07:28:32;12.56;74.97
78315;SHT31;68596;52.080;4.662;2024-03-22T07:31:16;12.47;75.37
78315;SHT31;68596;52.080;4.662;2024-03-22T07:34:00;12.44;75.65
78315;SHT31;68596;52.080;4.662;2024-03-22T07:36:44;12.46;75.66
78315;SHT31;68596;52.080;4.662;2024-03-22T07:39:28;12.47;75.75
78315;SHT31;68596;52.080;4.662;2024-03-22T07:42:13;12.49;75.81
78315;SHT31;68596;52.080;4.662;2024-03-22T07:44:58;12.51;75.77
78315;SHT31;68596;52.080;4.662;2024-03-22T07:47:42;12.46;75.77
78315;SHT31;68596;52.080;4.662;2024-03-22T07:50:27;12.43;76.10
78315;SHT31;68596;52.080;4.662;2024-03-22T07:53:11;12.41;76.49
78315;SHT31;68596;52.080;4.662;2024-03-22T07:55:57;12.40;76.80
78315;SHT31;68596;52.080;4.662;2024-03-22T07:58:42;12.40;76.93
78315;SHT31;68596;52.080;4.662;2024-03-22T08:01:27;12.37;77.17
78315;SHT31;68596;52.080;4.662;2024-03-22T08:04:11;12.43;77.32
78315;SHT31;68596;52.080;4.662;2024-03-22T08:06:55;12.43;77.19
78315;SHT31;68596;52.080;4.662;2024-03-22T08:09:39;12.44;77.29
78315;SHT31;68596;52.080;4.662;2024-03-22T08:12:24;12.44;77.34
78315;SHT31;68596;52.080;4.662;2024-03-22T08:15:09;12.43;77.51
78315;SHT31;68596;52.080;4.662;2024-03-22T08:17:53;12.43;77.67
78315;SHT31;68596;52.080;4.662;2024-03-22T08:20:37;12.44;77.72
78315;SHT31;68596;52.080;4.662;2024-03-22T08:23:22;12.43;77.81
78315;SHT31;68596;52.080;4.662;2024-03-22T08:26:06;12.40;77.79
78315;SHT31;68596;52.080;4.662;2024-03-22T08:28:51;12.41;77.96
78315;SHT31;68596;52.080;4.662;2024-03-22T08:31:36;12.47;77.89
78315;SHT31;68596;52.080;4.662;2024-03-22T08:34:21;12.47;77.70
78315;SHT31;68596;52.080;4.662;2024-03-22T08:37:05;12.44;77.99
78315;SHT31;68596;52.080;4.662;2024-03-22T08:39:49;12.49;78.24
78315;SHT31;68596;52.080;4.662;2024-03-22T08:42:33;12.51;78.23
78315;SHT31;68596;52.080;4.662;2024-03-22T08:45:17;12.51;78.12
78315;SHT31;68596;52.080;4.662;2024-03-22T08:48:01;12.43;78.36
78315;SHT31;68596;52.080;4.662;2024-03-22T08:50:45;12.37;78.84
78315;SHT31;68596;52.080;4.662;2024-03-22T08:53:29;12.34;79.03
78315;SHT31;68596;52.080;4.662;2024-03-22T08:56:13;12.34;79.18
78315;SHT31;68596;52.080;4.662;2024-03-22T08:58:58;12.41;78.83
78315;SHT31;68596;52.080;4.662;2024-03-22T09:01:43;12.39;78.94
78315;SHT31;68596;52.080;4.662;2024-03-22T09:04:27;12.41;78.82
78315;SHT31;68596;52.080;4.662;2024-03-22T09:07:12;12.46;78.64
78315;SHT31;68596;52.080;4.662;2024-03-22T09:09:56;12.44;78.76
78315;SHT31;68596;52.080;4.662;2024-03-22T09:12:40;12.40;78.79
78315;SHT31;68596;52.080;4.662;2024-03-22T09:15:25;12.40;78.84
78315;SHT31;68596;52.080;4.662;2024-03-22T09:18:09;12.34;78.86
78315;SHT31;68596;52.080;4.662;2024-03-22T09:20:53;12.26;79.18
78315;SHT31;68596;52.080;4.662;2024-03-22T09:23:38;12.25;79.32
78315;SHT31;68596;52.080;4.662;2024-03-22T09:26:22;12.28;79.40
78315;SHT31;68596;52.080;4.662;2024-03-22T09:29:06;12.41;79.14
78315;SHT31;68596;52.080;4.662;2024-03-22T09:31:50;12.43;78.99
78315;SHT31;68596;52.080;4.662;2024-03-22T09:34:35;12.47;78.74
78315;SHT31;68596;52.080;4.662;2024-03-22T09:37:19;12.54;78.66
78315;SHT31;68596;52.080;4.662;2024-03-22T09:40:03;12.54;78.55
78315;SHT31;68596;52.080;4.662;2024-03-22T09:42:53;12.56;78.52
78315;SHT31;68596;52.080;4.662;2024-03-22T09:45:38;12.53;78.66
78315;SHT31;68596;52.080;4.662;2024-03-22T09:48:23;12.60;78.60
78315;SHT31;68596;52.080;4.662;2024-03-22T09:51:08;12.63;78.51
78315;SHT31;68596;52.080;4.662;2024-03-22T09:53:53;12.67;78.47
78315;SHT31;68596;52.080;4.662;2024-03-22T09:56:39;12.73;78.33
78315;SHT31;68596;52.080;4.662;2024-03-22T09:59:23;12.76;78.04
78315;SHT31;68596;52.080;4.662;2024-03-22T10:02:11;12.71;78.06
78315;SHT31;68596;52.080;4.662;2024-03-22T10:04:59;12.71;77.96
78315;SHT31;68596;52.080;4.662;2024-03-22T10:07:43;12.68;78.22
78315;SHT31;68596;52.080;4.662;2024-03-22T10:10:28;12.71;78.24
78315;SHT31;68596;52.080;4.662;2024-03-22T10:13:12;12.77;77.82
78315;SHT31;68596;52.080;4.662;2024-03-22T10:15:57;12.77;78.11
78315;SHT31;68596;52.080;4.662;2024-03-22T10:18:42;12.81;77.88
78315;SHT31;68596;52.080;4.662;2024-03-22T10:21:26;12.73;78.34
78315;SHT31;68596;52.080;4.662;2024-03-22T10:24:12;12.73;78.64
78315;SHT31;68596;52.080;4.662;2024-03-22T10:26:56;12.80;78.44
78315;SHT31;68596;52.080;4.662;2024-03-22T10:29:42;12.91;78.39
78315;SHT31;68596;52.080;4.662;2024-03-22T10:32:27;12.95;78.09
78315;SHT31;68596;52.080;4.662;2024-03-22T10:35:14;13.00;77.82
78315;SHT31;68596;52.080;4.662;2024-03-22T10:38:00;13.00;77.35
78315;SHT31;68596;52.080;4.662;2024-03-22T10:40:45;12.92;77.45
78315;SHT31;68596;52.080;4.662;2024-03-22T10:43:30;12.84;77.72
78315;SHT31;68596;52.080;4.662;2024-03-22T10:46:16;12.88;78.06
78315;SHT31;68596;52.080;4.662;2024-03-22T10:49:05;12.98;77.47
78315;SHT31;68596;52.080;4.662;2024-03-22T10:51:58;12.95;77.80
78315;SHT31;68596;52.080;4.662;2024-03-22T10:54:46;12.97;77.74
78315;SHT31;68596;52.080;4.662;2024-03-22T10:57:31;12.95;77.67
78315;SHT31;68596;52.080;4.662;2024-03-22T11:00:16;13.01;77.66
78315;SHT31;68596;52.080;4.662;2024-03-22T11:03:04;13.01;77.37
78315;SHT31;68596;52.080;4.662;2024-03-22T11:05:53;12.94;77.49
78315;SHT31;68596;52.080;4.662;2024-03-22T11:08:37;12.92;77.75
78315;SHT31;68596;52.080;4.662;2024-03-22T11:11:22;12.90;78.01
78315;SHT31;68596;52.080;4.662;2024-03-22T11:14:06;12.95;77.80
78315;SHT31;68596;52.080;4.662;2024-03-22T11:16:51;12.98;77.80
78315;SHT31;68596;52.080;4.662;2024-03-22T11:19:35;13.07;77.69
78315;SHT31;68596;52.080;4.662;2024-03-22T11:22:21;13.16;77.85
78315;SHT31;68596;52.080;4.662;2024-03-22T11:25:05;13.26;77.48
78315;SHT31;68596;52.080;4.662;2024-03-22T11:27:49;13.28;77.19
78315;SHT31;68596;52.080;4.662;2024-03-22T11:30:34;13.35;76.62
78315;SHT31;68596;52.080;4.662;2024-03-22T11:33:18;13.34;76.27
78315;SHT31;68596;52.080;4.662;2024-03-22T11:36:03;13.35;76.35
78315;SHT31;68596;52.080;4.662;2024-03-22T11:38:48;13.36;76.19
78315;SHT31;68596;52.080;4.662;2024-03-22T11:41:37;13.44;76.09
78315;SHT31;68596;52.080;4.662;2024-03-22T11:44:23;13.49;76.41
78315;SHT31;68596;52.080;4.662;2024-03-22T11:47:09;13.58;76.12
78315;SHT31;68596;52.080;4.662;2024-03-22T11:49:55;13.66;75.65
78315;SHT31;68596;52.080;4.662;2024-03-22T11:52:40;13.73;75.32
78315;SHT31;68596;52.080;4.662;2024-03-22T11:55:27;13.69;75.31
78315;SHT31;68596;52.080;4.662;2024-03-22T11:58:12;13.67;75.28
78315;SHT31;68596;52.080;4.662;2024-03-22T12:00:57;13.65;75.06
78315;SHT31;68596;52.080;4.662;2024-03-22T12:03:47;13.67;74.92
78315;SHT31;68596;52.080;4.662;2024-03-22T12:06:30;13.67;74.96
78315;SHT31;68596;52.080;4.662;2024-03-22T12:09:15;13.72;74.53
78315;SHT31;68596;52.080;4.662;2024-03-22T12:11:59;13.80;74.66
78315;SHT31;68596;52.080;4.662;2024-03-22T12:14:43;13.87;74.69
78315;SHT31;68596;52.080;4.662;2024-03-22T12:17:27;13.87;74.31
78315;SHT31;68596;52.080;4.662;2024-03-22T12:20:11;13.86;74.47
78315;SHT31;68596;52.080;4.662;2024-03-22T12:22:55;13.91;74.31
78315;SHT31;68596;52.080;4.662;2024-03-22T12:25:40;13.95;74.06
78315;SHT31;68596;52.080;4.662;2024-03-22T12:28:24;13.95;74.22
78315;SHT31;68596;52.080;4.662;2024-03-22T12:31:09;13.95;73.97
78315;SHT31;68596;52.080;4.662;2024-03-22T12:33:56;13.89;72.99
78315;SHT31;68596;52.080;4.662;2024-03-22T12:36:40;13.86;72.99
78315;SHT31;68596;52.080;4.662;2024-03-22T12:39:24;13.82;73.84
78315;SHT31;68596;52.080;4.662;2024-03-22T12:42:09;13.80;73.51
78315;SHT31;68596;52.080;4.662;2024-03-22T12:44:54;13.82;73.48
78315;SHT31;68596;52.080;4.662;2024-03-22T12:47:38;13.79;73.49
78315;SHT31;68596;52.080;4.662;2024-03-22T12:50:22;13.82;74.02
78315;SHT31;68596;52.080;4.662;2024-03-22T12:53:06;13.86;73.62
78315;SHT31;68596;52.080;4.662;2024-03-22T12:55:51;13.85;73.40
78315;SHT31;68596;52.080;4.662;2024-03-22T12:58:35;13.89;73.00
78315;SHT31;68596;52.080;4.662;2024-03-22T13:01:19;13.86;73.68
78315;SHT31;68596;52.080;4.662;2024-03-22T13:04:03;13.85;73.68
78315;SHT31;68596;52.080;4.662;2024-03-22T13:06:48;13.87;73.82
78315;SHT31;68596;52.080;4.662;2024-03-22T13:09:32;13.91;74.05
78315;SHT31;68596;52.080;4.662;2024-03-22T13:12:16;13.90;73.65
78315;SHT31;68596;52.080;4.662;2024-03-22T13:15:03;13.93;72.99
78315;SHT31;68596;52.080;4.662;2024-03-22T13:17:48;13.97;73.20
78315;SHT31;68596;52.080;4.662;2024-03-22T13:20:35;13.95;73.24
78315;SHT31;68596;52.080;4.662;2024-03-22T13:23:19;13.95;72.85
78315;SHT31;68596;52.080;4.662;2024-03-22T13:26:04;13.95;73.13
78315;SHT31;68596;52.080;4.662;2024-03-22T13:28:48;13.95;72.98
78315;SHT31;68596;52.080;4.662;2024-03-22T13:31:33;13.91;72.64
78315;SHT31;68596;52.080;4.662;2024-03-22T13:34:17;13.91;72.47
78315;SHT31;68596;52.080;4.662;2024-03-22T13:37:01;13.93;72.71
78315;SHT31;68596;52.080;4.662;2024-03-22T13:39:49;13.95;72.99
78315;SHT31;68596;52.080;4.662;2024-03-22T13:42:33;13.99;72.89
78315;SHT31;68596;52.080;4.662;2024-03-22T13:45:17;13.96;72.65
78315;SHT31;68596;52.080;4.662;2024-03-22T13:48:10;13.89;72.70
78315;SHT31;68596;52.080;4.662;2024-03-22T13:50:55;13.89;72.95
78315;SHT31;68596;52.080;4.662;2024-03-22T13:53:40;13.85;72.70
78315;SHT31;68596;52.080;4.662;2024-03-22T13:56:24;13.83;73.08
78315;SHT31;68596;52.080;4.662;2024-03-22T13:59:08;13.86;72.68
78315;SHT31;68596;52.080;4.662;2024-03-22T14:01:53;13.89;72.24
78315;SHT31;68596;52.080;4.662;2024-03-22T14:04:37;13.86;72.08
78315;SHT31;68596;52.080;4.662;2024-03-22T14:07:20;13.89;72.45
78315;SHT31;68596;52.080;4.662;2024-03-22T14:10:05;13.89;71.92
78315;SHT31;68596;52.080;4.662;2024-03-22T14:12:50;13.96;71.60
78315;SHT31;68596;52.080;4.662;2024-03-22T14:15:35;13.93;71.85
78315;SHT31;68596;52.080;4.662;2024-03-22T14:18:19;13.96;71.48
78315;SHT31;68596;52.080;4.662;2024-03-22T14:21:04;13.93;70.71
78315;SHT31;68596;52.080;4.662;2024-03-22T14:23:49;13.89;70.70
78315;SHT31;68596;52.080;4.662;2024-03-22T14:26:33;13.86;71.27
78315;SHT31;68596;52.080;4.662;2024-03-22T14:29:17;13.80;70.62
78315;SHT31;68596;52.080;4.662;2024-03-22T14:32:02;13.70;70.26
78315;SHT31;68596;52.080;4.662;2024-03-22T14:34:47;13.67;70.61
78315;SHT31;68596;52.080;4.662;2024-03-22T14:37:31;13.65;70.76
78315;SHT31;68596;52.080;4.662;2024-03-22T14:40:16;13.58;70.22
78315;SHT31;68596;52.080;4.662;2024-03-22T14:43:01;13.46;70.23
78315;SHT31;68596;52.080;4.662;2024-03-22T14:45:45;13.45;70.34
78315;SHT31;68596;52.080;4.662;2024-03-22T14:48:29;13.45;69.54
78315;SHT31;68596;52.080;4.662;2024-03-22T14:51:13;13.42;69.84
78315;SHT31;68596;52.080;4.662;2024-03-22T14:53:57;13.36;70.07
78315;SHT31;68596;52.080;4.662;2024-03-22T14:56:42;13.35;70.10
78315;SHT31;68596;52.080;4.662;2024-03-22T14:59:29;13.28;68.72
78315;SHT31;68596;52.080;4.662;2024-03-22T15:02:14;13.18;68.64
78315;SHT31;68596;52.080;4.662;2024-03-22T15:04:58;13.05;68.73
78315;SHT31;68596;52.080;4.662;2024-03-22T15:07:42;13.00;68.72
78315;SHT31;68596;52.080;4.662;2024-03-22T15:10:26;13.00;69.55
78315;SHT31;68596;52.080;4.662;2024-03-22T15:13:12;13.00;69.93
78315;SHT31;68596;52.080;4.662;2024-03-22T15:15:58;13.00;70.24
78315;SHT31;68596;52.080;4.662;2024-03-22T15:18:46;13.02;70.34
78315;SHT31;68596;52.080;4.662;2024-03-22T15:21:30;13.02;71.02
78315;SHT31;68596;52.080;4.662;2024-03-22T15:24:15;13.07;70.58
78315;SHT31;68596;52.080;4.662;2024-03-22T15:26:59;13.07;70.46
78315;SHT31;68596;52.080;4.662;2024-03-22T15:29:43;13.07;70.37
78315;SHT31;68596;52.080;4.662;2024-03-22T15:32:27;13.04;70.30
78315;SHT31;68596;52.080;4.662;2024-03-22T15:35:12;13.04;70.57
78315;SHT31;68596;52.080;4.662;2024-03-22T15:37:59;13.02;71.08
78315;SHT31;68596;52.080;4.662;2024-03-22T15:40:43;13.02;71.04
78315;SHT31;68596;52.080;4.662;2024-03-22T15:43:27;13.04;71.17
78315;SHT31;68596;52.080;4.662;2024-03-22T15:46:12;13.02;70.89
78315;SHT31;68596;52.080;4.662;2024-03-22T15:48:56;13.05;71.29
78315;SHT31;68596;52.080;4.662;2024-03-22T15:51:40;13.02;71.38
78315;SHT31;68596;52.080;4.662;2024-03-22T15:54:25;13.05;71.28
78315;SHT31;68596;52.080;4.662;2024-03-22T15:57:09;13.04;71.67
78315;SHT31;68596;52.080;4.662;2024-03-22T15:59:53;13.01;71.89
78315;SHT31;68596;52.080;4.662;2024-03-22T16:02:37;13.05;71.74
78315;SHT31;68596;52.080;4.662;2024-03-22T16:05:22;13.04;71.86
78315;SHT31;68596;52.080;4.662;2024-03-22T16:08:06;13.02;71.54
78315;SHT31;68596;52.080;4.662;2024-03-22T16:10:50;13.02;71.91
78315;SHT31;68596;52.080;4.662;2024-03-22T16:13:35;13.02;72.29
78315;SHT31;68596;52.080;4.662;2024-03-22T16:16:19;13.05;72.24
78315;SHT31;68596;52.080;4.662;2024-03-22T16:19:03;13.05;72.69
78315;SHT31;68596;52.080;4.662;2024-03-22T16:21:47;13.05;72.61
78315;SHT31;68596;52.080;4.662;2024-03-22T16:24:31;13.08;72.48
78315;SHT31;68596;52.080;4.662;2024-03-22T16:27:15;13.07;72.21
78315;SHT31;68596;52.080;4.662;2024-03-22T16:30:00;13.08;71.83
78315;SHT31;68596;52.080;4.662;2024-03-22T16:32:45;13.08;72.02
78315;SHT31;68596;52.080;4.662;2024-03-22T16:35:29;13.11;71.49
78315;SHT31;68596;52.080;4.662;2024-03-22T16:38:13;13.08;71.34
78315;SHT31;68596;52.080;4.662;2024-03-22T16:40:57;13.08;71.49
78315;SHT31;68596;52.080;4.662;2024-03-22T16:43:42;13.07;71.89
78315;SHT31;68596;52.080;4.662;2024-03-22T16:46:27;13.08;71.77
78315;SHT31;68596;52.080;4.662;2024-03-22T16:49:11;13.07;71.35
78315;SHT31;68596;52.080;4.662;2024-03-22T16:51:55;13.08;69.95
78315;SHT31;68596;52.080;4.662;2024-03-22T16:54:39;13.00;69.98
78315;SHT31;68596;52.080;4.662;2024-03-22T16:57:23;12.92;69.29
78315;SHT31;68596;52.080;4.662;2024-03-22T17:00:08;12.88;69.81
78315;SHT31;68596;52.080;4.662;2024-03-22T17:02:52;12.85;69.12
78315;SHT31;68596;52.080;4.662;2024-03-22T17:05:36;12.83;69.48
78315;SHT31;68596;52.080;4.662;2024-03-22T17:08:22;12.81;69.57
78315;SHT31;68596;52.080;4.662;2024-03-22T17:11:06;12.81;69.99
78315;SHT31;68596;52.080;4.662;2024-03-22T17:13:50;12.84;69.49
78315;SHT31;68596;52.080;4.662;2024-03-22T17:16:34;12.81;69.68
78315;SHT31;68596;52.080;4.662;2024-03-22T17:19:18;12.80;69.86